createdAt,value
2023-05-05T00:01:12.172Z,0.60
2023-05-05T00:03:39.978Z,0.90
2023-05-05T00:06:08.243Z,0.80
2023-05-05T00:08:35.496Z,1.42
2023-05-05T00:11:02.941Z,1.20
2023-05-05T00:13:30.338Z,1.25
2023-05-05T00:15:57.607Z,0.93
2023-05-05T00:18:24.904Z,0.90
2023-05-05T00:20:52.406Z,1.98
2023-05-05T00:23:19.745Z,0.65
2023-05-05T00:25:47.098Z,1.02
2023-05-05T00:28:14.395Z,0.85
2023-05-05T00:30:41.765Z,0.85
2023-05-05T00:33:10.316Z,0.75
2023-05-05T00:35:37.692Z,1.00
2023-05-05T00:38:05.140Z,1.10
2023-05-05T00:40:32.467Z,1.08
2023-05-05T00:42:59.854Z,0.88
2023-05-05T00:45:27.093Z,1.00
2023-05-05T00:47:54.627Z,1.00
2023-05-05T00:50:22.756Z,1.10
2023-05-05T00:52:50.028Z,1.17
2023-05-05T00:55:17.243Z,1.08
2023-05-05T00:57:44.605Z,0.80
2023-05-05T01:00:11.871Z,1.35
2023-05-05T01:02:39.262Z,1.00
2023-05-05T01:05:06.836Z,1.13
2023-05-05T01:07:34.204Z,1.30
2023-05-05T01:10:11.402Z,0.82
2023-05-05T01:12:46.223Z,1.13
2023-05-05T01:15:13.476Z,0.85
2023-05-05T01:17:40.894Z,1.10
2023-05-05T01:20:08.413Z,1.10
2023-05-05T01:22:35.907Z,1.40
2023-05-05T01:25:05.174Z,1.25
2023-05-05T01:27:32.441Z,1.63
2023-05-05T01:29:59.714Z,1.50
2023-05-05T01:32:26.924Z,1.27
2023-05-05T01:34:54.272Z,1.10
2023-05-05T01:37:21.859Z,1.30
2023-05-05T01:39:49.104Z,1.35
2023-05-05T01:42:18.295Z,1.40
2023-05-05T01:44:45.605Z,1.45
2023-05-05T01:47:12.817Z,1.23
2023-05-05T01:49:40.120Z,1.73
2023-05-05T01:52:07.358Z,1.25
2023-05-05T01:54:34.767Z,1.15
2023-05-05T01:57:02.142Z,1.55
2023-05-05T02:06:53.112Z,1.25
2023-05-05T02:09:21.633Z,1.52
2023-05-05T02:11:48.872Z,1.80
2023-05-05T02:14:16.185Z,1.08
2023-05-05T02:16:43.369Z,1.35
2023-05-05T02:46:19.750Z,1.50
2023-05-05T02:48:48.402Z,1.90
2023-05-05T02:51:15.948Z,1.98
2023-05-05T02:53:43.288Z,1.77
2023-05-05T02:56:11.253Z,2.15
2023-05-05T03:01:15.154Z,2.55
2023-05-05T03:03:42.568Z,2.17
2023-05-05T03:06:12.264Z,3.15
2023-05-05T03:08:40.880Z,2.58
2023-05-05T03:11:08.464Z,2.88
2023-05-05T03:13:38.729Z,2.38
2023-05-05T03:16:06.975Z,2.78
2023-05-05T03:18:34.544Z,2.60
2023-05-05T03:21:08.608Z,2.65
2023-05-05T03:23:38.118Z,3.08
2023-05-05T03:26:09.690Z,2.40
2023-05-05T03:28:40.919Z,2.83
2023-05-05T03:31:16.182Z,3.30
2023-05-05T03:33:43.668Z,2.38
2023-05-05T03:36:11.048Z,2.50
2023-05-05T03:38:39.526Z,2.80
2023-05-05T03:41:06.784Z,2.75
2023-05-05T03:43:34.229Z,3.05
2023-05-05T03:46:01.801Z,2.85
2023-05-05T03:48:29.193Z,2.60
2023-05-05T03:50:56.524Z,3.28
2023-05-05T03:53:26.045Z,2.67
2023-05-05T03:55:53.411Z,3.97
2023-05-05T03:58:20.901Z,3.15
2023-05-05T04:00:49.007Z,2.97
2023-05-05T04:03:17.675Z,3.70
2023-05-05T04:05:45.168Z,3.13
2023-05-05T04:08:12.553Z,3.60
2023-05-05T04:10:39.832Z,3.22
2023-05-05T04:13:08.731Z,3.70
2023-05-05T04:15:36.870Z,4.28
2023-05-05T04:18:04.159Z,3.22
2023-05-05T04:20:32.753Z,3.55
2023-05-05T04:23:00.294Z,3.25
2023-05-05T04:25:27.588Z,3.58
2023-05-05T04:27:55.406Z,3.90
2023-05-05T04:30:22.991Z,4.07
2023-05-05T04:32:50.819Z,3.88
2023-05-05T04:35:18.515Z,3.67
2023-05-05T04:37:46.080Z,3.58
2023-05-05T04:40:13.578Z,3.50
2023-05-05T04:42:41.531Z,3.42
2023-05-05T04:45:08.936Z,3.50
2023-05-05T04:47:36.828Z,3.58
2023-05-05T04:50:04.274Z,4.35
2023-05-05T04:52:31.563Z,3.97
2023-05-05T04:54:59.741Z,3.90
2023-05-05T04:57:27.007Z,3.05
2023-05-05T04:59:54.541Z,4.25
2023-05-05T05:02:22.145Z,3.45
2023-05-05T05:04:50.352Z,3.53
2023-05-05T05:07:17.738Z,3.40
2023-05-05T05:09:45.190Z,3.30
2023-05-05T05:12:12.801Z,3.10
2023-05-05T05:14:40.681Z,3.58
2023-05-05T05:17:07.927Z,3.10
2023-05-05T05:19:35.258Z,3.10
2023-05-05T05:22:03.157Z,3.05
2023-05-05T05:24:32.703Z,3.42
2023-05-05T05:27:00.020Z,2.85
2023-05-05T05:29:27.613Z,2.38
2023-05-05T05:31:55.875Z,4.70
2023-05-05T05:34:23.283Z,2.28
2023-05-05T05:36:51.009Z,2.13
2023-05-05T05:39:18.664Z,2.92
2023-05-05T05:41:46.127Z,2.10
2023-05-05T05:44:13.964Z,3.50
2023-05-05T05:46:41.793Z,2.17
2023-05-05T05:49:09.257Z,2.50
2023-05-05T05:51:36.718Z,2.53
2023-05-05T05:54:04.265Z,2.40
2023-05-05T05:56:31.864Z,2.00
2023-05-05T05:58:59.260Z,2.45
2023-05-05T06:01:26.915Z,2.13
2023-05-05T06:03:54.460Z,2.30
2023-05-05T06:06:22.439Z,2.42
2023-05-05T06:08:50.246Z,2.05
2023-05-05T06:11:17.546Z,2.25
2023-05-05T06:13:44.825Z,1.88
2023-05-05T06:16:12.196Z,2.05
2023-05-05T06:18:41.657Z,1.77
2023-05-05T06:21:09.436Z,2.25
2023-05-05T06:23:36.864Z,2.40
2023-05-05T06:26:06.812Z,2.05
2023-05-05T06:28:34.054Z,3.50
2023-05-05T06:31:01.457Z,2.35
2023-05-05T06:33:28.873Z,2.00
2023-05-05T06:35:56.159Z,1.88
2023-05-05T06:38:23.665Z,2.22
2023-05-05T06:40:50.937Z,2.25
2023-05-05T06:43:18.469Z,1.80
2023-05-05T06:45:52.737Z,1.60
2023-05-05T06:48:20.172Z,1.85
2023-05-05T06:50:47.449Z,1.50
2023-05-05T06:53:14.851Z,3.08
2023-05-05T06:55:42.094Z,1.90
2023-05-05T06:58:09.486Z,1.80
2023-05-05T07:00:36.872Z,1.60
2023-05-05T07:03:04.381Z,1.98
2023-05-05T07:05:31.616Z,1.90
2023-05-05T07:07:59.083Z,2.03
2023-05-05T07:10:26.405Z,1.85
2023-05-05T07:12:54.953Z,1.50
2023-05-05T07:15:28.615Z,1.90
2023-05-05T07:17:57.005Z,1.58
2023-05-05T07:20:24.721Z,1.77
2023-05-05T07:22:52.223Z,1.70
2023-05-05T07:25:19.701Z,2.03
2023-05-05T07:27:47.067Z,1.65
2023-05-05T07:30:18.111Z,1.60
2023-05-05T07:32:46.130Z,1.33
2023-05-05T07:35:13.589Z,1.33
2023-05-05T07:37:40.888Z,1.25
2023-05-05T07:40:08.461Z,1.33
2023-05-05T07:42:36.014Z,1.42
2023-05-05T07:45:03.378Z,1.95
2023-05-05T07:47:30.644Z,1.20
2023-05-05T07:49:58.000Z,1.30
2023-05-05T07:52:43.648Z,1.38
2023-05-05T07:55:12.147Z,1.60
2023-05-05T07:57:39.477Z,1.38
2023-05-05T08:00:06.933Z,2.45
2023-05-05T08:02:39.325Z,1.58
2023-05-05T08:05:07.270Z,1.40
2023-05-05T08:07:36.579Z,1.30
2023-05-05T08:10:03.910Z,1.13
2023-05-05T08:12:31.386Z,1.55
2023-05-05T08:14:58.660Z,1.80
2023-05-05T08:17:27.138Z,1.25
2023-05-05T08:19:54.515Z,1.10
2023-05-05T08:22:21.745Z,1.42
2023-05-05T08:24:49.063Z,4.63
2023-05-05T08:27:16.341Z,1.75
2023-05-05T08:29:43.584Z,1.00
2023-05-05T08:32:10.969Z,1.10
2023-05-05T08:34:38.192Z,1.52
2023-05-05T08:37:05.442Z,1.13
2023-05-05T08:39:32.765Z,1.00
2023-05-05T08:42:00.012Z,1.00
2023-05-05T08:44:28.920Z,1.35
2023-05-05T08:46:57.179Z,1.27
2023-05-05T08:49:24.461Z,1.00
2023-05-05T08:51:52.151Z,0.93
2023-05-05T08:54:19.757Z,0.82
2023-05-05T08:56:47.030Z,1.35
2023-05-05T08:59:14.254Z,0.60
2023-05-05T09:01:41.765Z,0.95
2023-05-05T09:04:09.138Z,2.22
2023-05-05T09:06:37.255Z,0.98
2023-05-05T09:09:04.601Z,0.65
2023-05-05T09:11:31.797Z,0.77
2023-05-05T09:13:59.425Z,1.25
2023-05-05T09:16:26.800Z,1.00
2023-05-05T09:18:54.034Z,1.13
2023-05-05T09:21:22.001Z,0.75
2023-05-05T09:23:49.278Z,0.95
2023-05-05T09:26:17.109Z,0.88
2023-05-05T09:28:44.347Z,0.68
2023-05-05T09:31:11.686Z,0.73
2023-05-05T09:33:38.958Z,0.95
2023-05-05T09:36:06.294Z,0.88
2023-05-05T09:38:33.551Z,0.68
2023-05-05T09:41:00.840Z,0.70
2023-05-05T09:43:28.281Z,1.27
2023-05-05T09:45:55.625Z,0.70
2023-05-05T09:48:22.910Z,0.77
2023-05-05T09:50:50.215Z,0.55
2023-05-05T09:53:17.469Z,0.68
2023-05-05T09:55:44.939Z,0.95
2023-05-05T09:58:14.143Z,1.00
2023-05-05T10:00:41.445Z,0.95
2023-05-05T10:03:08.955Z,0.88
2023-05-05T10:05:36.604Z,0.77
2023-05-05T10:08:04.045Z,1.20
2023-05-05T10:10:31.372Z,0.77
2023-05-05T10:12:58.794Z,0.75
2023-05-05T10:15:26.253Z,0.75
2023-05-05T10:18:06.123Z,2.28
2023-05-05T10:20:35.202Z,0.77
2023-05-05T10:23:02.772Z,0.98
2023-05-05T10:25:31.411Z,1.00
2023-05-05T10:27:58.691Z,1.50
2023-05-05T10:30:26.066Z,1.05
2023-05-05T10:33:07.892Z,1.58
2023-05-05T10:35:40.971Z,0.70
2023-05-05T10:38:10.556Z,0.98
2023-05-05T10:40:37.827Z,1.30
2023-05-05T10:43:05.108Z,1.10
2023-05-05T10:45:32.363Z,0.95
2023-05-05T10:47:59.773Z,1.05
2023-05-05T10:50:27.204Z,1.00
2023-05-05T10:52:54.435Z,0.77
2023-05-05T10:55:21.705Z,0.68
2023-05-05T10:57:48.962Z,0.68
2023-05-05T11:00:16.264Z,0.52
2023-05-05T11:02:43.855Z,2.22
2023-05-05T11:05:12.369Z,0.90
2023-05-05T11:07:39.790Z,0.60
2023-05-05T11:10:07.348Z,0.77
2023-05-05T11:12:38.781Z,1.00
2023-05-05T11:15:06.153Z,0.57
2023-05-05T11:17:33.544Z,0.45
2023-05-05T11:20:00.760Z,0.70
2023-05-05T11:22:28.025Z,0.50
2023-05-05T11:24:55.293Z,0.75
2023-05-05T11:27:22.502Z,0.80
2023-05-05T11:29:52.003Z,0.90
2023-05-05T11:32:20.302Z,0.73
2023-05-05T11:34:47.491Z,0.90
2023-05-05T11:37:14.969Z,0.68
2023-05-05T11:39:42.237Z,1.10
2023-05-05T11:42:10.979Z,0.73
2023-05-05T11:44:38.573Z,0.40
2023-05-05T11:47:05.905Z,0.40
2023-05-05T11:49:33.192Z,0.40
2023-05-05T11:52:00.491Z,0.93
2023-05-05T11:54:27.708Z,0.75
2023-05-05T11:56:55.072Z,0.63
2023-05-05T11:59:22.305Z,0.70
2023-05-05T12:01:49.575Z,0.60
2023-05-05T12:04:16.954Z,1.10
2023-05-05T12:06:44.306Z,0.50
2023-05-05T12:09:11.888Z,0.63
2023-05-05T12:11:39.217Z,0.60
2023-05-05T12:14:06.432Z,0.60
2023-05-05T12:16:33.872Z,0.60
2023-05-05T12:19:01.466Z,0.70
2023-05-05T12:21:28.703Z,0.50
2023-05-05T12:23:55.916Z,0.43
2023-05-05T12:26:23.216Z,0.70
2023-05-05T12:28:50.809Z,0.50
2023-05-05T12:31:18.136Z,0.50
2023-05-05T12:33:45.415Z,0.80
2023-05-05T12:36:13.141Z,0.82
2023-05-05T12:38:40.339Z,0.93
2023-05-05T12:41:07.706Z,1.02
2023-05-05T12:43:34.997Z,0.75
2023-05-05T12:46:02.364Z,0.90
2023-05-05T12:48:29.724Z,0.60
2023-05-05T12:50:57.071Z,1.02
2023-05-05T12:53:24.408Z,1.42
2023-05-05T12:55:52.034Z,0.80
2023-05-05T12:58:19.230Z,0.80
2023-05-05T13:00:46.586Z,0.70
2023-05-05T13:03:14.489Z,1.15
2023-05-05T13:05:41.926Z,0.90
2023-05-05T13:08:09.135Z,0.57
2023-05-05T13:10:37.399Z,0.70
2023-05-05T13:13:04.707Z,1.00
2023-05-05T13:15:32.085Z,0.73
2023-05-05T13:18:00.302Z,0.90
2023-05-05T13:20:28.653Z,1.00
2023-05-05T13:22:55.911Z,0.88
2023-05-05T13:25:23.394Z,1.58
2023-05-05T13:27:50.619Z,0.75
2023-05-05T13:30:17.993Z,0.88
2023-05-05T13:32:45.216Z,1.13
2023-05-05T13:35:14.759Z,0.75
2023-05-05T13:37:44.393Z,0.80
2023-05-05T13:40:13.401Z,0.90
2023-05-05T13:42:41.051Z,0.90
2023-05-05T13:45:08.588Z,1.10
2023-05-05T13:47:36.276Z,0.90
2023-05-05T13:50:03.677Z,0.82
2023-05-05T13:52:31.806Z,1.83
2023-05-05T13:55:01.082Z,0.88
2023-05-05T13:57:28.495Z,0.80
2023-05-05T13:59:55.851Z,0.90
2023-05-05T14:02:23.165Z,0.90
2023-05-05T14:04:50.552Z,0.93
2023-05-05T14:07:17.940Z,0.98
2023-05-05T14:09:45.388Z,0.90
2023-05-05T14:12:12.639Z,1.15
2023-05-05T14:14:40.204Z,1.13
2023-05-05T14:17:07.527Z,1.00
2023-05-05T14:19:34.804Z,0.90
2023-05-05T14:22:02.168Z,0.70
2023-05-05T14:24:29.617Z,0.75
2023-05-05T14:26:57.002Z,0.85
2023-05-05T14:29:24.231Z,1.45
2023-05-05T14:31:51.895Z,1.10
2023-05-05T14:34:19.109Z,0.70
2023-05-05T14:36:46.592Z,0.80
2023-05-05T14:39:13.943Z,2.30
2023-05-05T14:41:41.625Z,0.80
2023-05-05T14:44:08.856Z,0.90
2023-05-05T14:46:36.113Z,1.10
2023-05-05T14:49:03.332Z,1.15
2023-05-05T14:51:32.095Z,1.23
2023-05-05T14:53:59.389Z,0.95
2023-05-05T14:56:26.831Z,1.48
2023-05-05T14:58:54.057Z,1.10
2023-05-05T15:01:21.393Z,1.00
2023-05-05T15:03:48.813Z,0.95
2023-05-05T15:06:16.747Z,1.52
2023-05-05T15:08:44.025Z,1.10
2023-05-05T15:11:11.325Z,1.10
2023-05-05T15:13:40.262Z,0.90
2023-05-05T15:16:07.667Z,1.00
2023-05-05T15:18:34.914Z,0.80
2023-05-05T15:21:02.153Z,1.65
2023-05-05T15:23:29.386Z,1.00
2023-05-05T15:25:56.655Z,2.15
2023-05-05T15:28:24.347Z,1.30
2023-05-05T15:30:51.595Z,1.20
2023-05-05T15:33:19.009Z,1.75
2023-05-05T15:35:46.565Z,1.50
2023-05-05T15:38:13.845Z,1.10
2023-05-05T15:40:41.064Z,1.40
2023-05-05T15:43:08.814Z,1.23
2023-05-05T15:45:36.397Z,1.40
2023-05-05T15:48:03.733Z,1.30
2023-05-05T15:50:31.095Z,1.33
2023-05-05T15:52:59.084Z,1.20
2023-05-05T15:55:26.322Z,1.88
2023-05-05T15:57:53.605Z,0.98
2023-05-05T16:00:20.941Z,1.20
2023-05-05T16:02:48.269Z,1.20
2023-05-05T16:05:15.768Z,1.23
2023-05-05T16:07:43.105Z,1.33
2023-05-05T16:10:10.768Z,1.38
2023-05-05T16:12:39.365Z,1.65
2023-05-05T16:15:06.891Z,1.40
2023-05-05T16:17:34.392Z,2.10
2023-05-05T16:20:01.743Z,1.70
2023-05-05T16:22:29.124Z,2.70
2023-05-05T16:24:57.875Z,1.70
2023-05-05T16:27:25.189Z,1.48
2023-05-05T16:29:53.357Z,1.60
2023-05-05T16:32:20.784Z,1.80
2023-05-05T16:34:48.288Z,2.13
2023-05-05T16:37:15.544Z,1.45
2023-05-05T16:39:42.859Z,1.15
2023-05-05T16:42:10.131Z,3.22
2023-05-05T16:44:37.427Z,1.88
2023-05-05T16:47:04.885Z,1.98
2023-05-05T16:49:32.369Z,1.30
2023-05-05T16:51:59.698Z,1.58
2023-05-05T16:54:26.986Z,1.58
2023-05-05T16:56:54.957Z,1.90
2023-05-05T16:59:22.457Z,1.50
2023-05-05T17:01:49.771Z,1.45
2023-05-05T17:04:17.173Z,1.80
2023-05-05T17:06:44.536Z,2.25
2023-05-05T17:09:11.979Z,2.08
2023-05-05T17:11:39.312Z,1.42
2023-05-05T17:14:06.597Z,1.52
2023-05-05T17:16:33.868Z,1.92
2023-05-05T17:19:01.255Z,2.03
2023-05-05T17:21:29.223Z,2.13
2023-05-05T17:23:56.840Z,1.70
2023-05-05T17:26:24.520Z,2.47
2023-05-05T17:28:51.800Z,1.80
2023-05-05T17:31:19.105Z,1.67
2023-05-05T17:33:46.554Z,2.00
2023-05-05T17:36:13.790Z,2.08
2023-05-05T17:38:41.084Z,2.58
2023-05-05T17:41:08.291Z,2.25
2023-05-05T17:43:35.612Z,2.92
2023-05-05T17:46:02.932Z,2.08
2023-05-05T17:48:30.634Z,2.30
2023-05-05T17:50:57.928Z,2.22
2023-05-05T17:53:25.191Z,2.28
2023-05-05T17:55:52.484Z,1.85
2023-05-05T17:58:19.805Z,2.97
2023-05-05T18:00:47.030Z,2.13
2023-05-05T18:03:14.526Z,2.72
2023-05-05T18:05:42.027Z,3.53
2023-05-05T18:08:09.303Z,2.70
2023-05-05T18:10:36.598Z,2.17
2023-05-05T18:13:04.049Z,2.65
2023-05-05T18:15:31.386Z,2.58
2023-05-05T18:17:58.747Z,2.30
2023-05-05T18:20:26.032Z,2.88
2023-05-05T18:22:53.472Z,2.45
2023-05-05T18:25:20.750Z,3.00
2023-05-05T18:27:48.236Z,3.40
2023-05-05T18:30:15.497Z,3.28
2023-05-05T18:32:42.987Z,2.88
2023-05-05T18:35:10.453Z,2.45
2023-05-05T18:37:38.044Z,2.88
2023-05-05T18:40:05.347Z,2.72
2023-05-05T18:42:32.669Z,3.20
2023-05-05T18:44:59.865Z,2.47
2023-05-05T18:47:27.174Z,2.33
2023-05-05T18:49:54.429Z,2.85
2023-05-05T18:52:21.786Z,4.60
2023-05-05T18:54:49.267Z,3.33
2023-05-05T18:57:16.594Z,3.90
2023-05-05T18:59:43.794Z,3.03
2023-05-05T19:02:11.134Z,3.67
2023-05-05T19:04:38.570Z,6.70
2023-05-05T19:07:06.229Z,3.55
2023-05-05T19:09:33.597Z,3.97
2023-05-05T19:12:02.943Z,3.22
2023-05-05T19:14:30.540Z,2.78
2023-05-05T19:16:59.231Z,2.80
2023-05-05T19:19:26.618Z,4.13
2023-05-05T19:21:53.878Z,3.80
2023-05-05T19:24:21.604Z,4.80
2023-05-05T19:26:48.964Z,2.35
2023-05-05T19:29:16.224Z,3.78
2023-05-05T19:31:43.653Z,2.80
2023-05-05T19:34:11.357Z,4.40
2023-05-05T19:36:38.596Z,4.25
2023-05-05T19:39:05.951Z,3.00
2023-05-05T19:41:35.247Z,2.20
2023-05-05T19:44:03.038Z,2.45
2023-05-05T19:46:30.413Z,2.08
2023-05-05T19:48:57.777Z,2.67
2023-05-05T19:51:25.155Z,1.92
2023-05-05T19:53:52.345Z,1.95
2023-05-05T19:56:19.631Z,2.38
2023-05-05T19:58:46.913Z,2.45
2023-05-05T20:01:16.416Z,2.15
2023-05-05T20:03:43.797Z,2.47
2023-05-05T20:06:11.127Z,2.38
2023-05-05T20:08:38.881Z,2.55
2023-05-05T20:11:06.129Z,2.30
2023-05-05T20:13:34.432Z,2.05
2023-05-05T20:16:01.746Z,2.53
2023-05-05T20:18:29.262Z,1.75
2023-05-05T20:20:56.564Z,2.50
2023-05-05T20:23:23.826Z,2.25
2023-05-05T20:25:51.313Z,2.03
2023-05-05T20:28:18.927Z,2.83
2023-05-05T20:30:46.194Z,1.95
2023-05-05T20:33:13.426Z,2.13
2023-05-05T20:35:40.692Z,1.83
2023-05-05T20:38:09.676Z,4.72
2023-05-05T20:40:37.129Z,2.42
2023-05-05T20:43:04.387Z,2.15
2023-05-05T20:45:31.856Z,2.25
2023-05-05T20:47:59.189Z,1.95
2023-05-05T20:50:26.481Z,2.00
2023-05-05T20:52:53.814Z,1.98
2023-05-05T20:55:21.463Z,2.22
2023-05-05T20:57:48.660Z,2.80
2023-05-05T21:00:15.982Z,2.17
2023-05-05T21:02:43.463Z,2.10
2023-05-05T21:05:10.882Z,1.75
2023-05-05T21:07:38.181Z,2.60
2023-05-05T21:10:05.779Z,2.20
2023-05-05T21:12:33.001Z,2.70
2023-05-05T21:15:00.468Z,4.13
2023-05-05T21:17:27.815Z,2.47
2023-05-05T21:19:55.237Z,1.88
2023-05-05T21:22:23.390Z,2.72
2023-05-05T21:24:51.158Z,1.83
2023-05-05T21:27:18.395Z,2.28
2023-05-05T21:29:45.658Z,2.00
2023-05-05T21:32:12.952Z,2.45
2023-05-05T21:34:40.566Z,3.22
2023-05-05T21:37:08.499Z,2.97
2023-05-05T21:39:35.830Z,2.10
2023-05-05T21:42:03.024Z,2.70
2023-05-05T21:44:30.425Z,2.08
2023-05-05T21:46:57.632Z,2.80
2023-05-05T21:49:24.876Z,3.70
2023-05-05T21:51:52.097Z,2.30
2023-05-05T21:54:19.324Z,2.58
2023-05-05T21:56:46.581Z,2.28
2023-05-05T21:59:15.270Z,3.08
2023-05-05T22:01:43.778Z,2.70
2023-05-05T22:04:11.082Z,1.75
2023-05-05T22:06:38.354Z,1.90
2023-05-05T22:09:05.810Z,2.15
2023-05-05T22:11:33.054Z,1.85
2023-05-05T22:14:01.224Z,1.83
2023-05-05T22:16:28.573Z,1.85
2023-05-05T22:18:55.844Z,2.60
2023-05-05T22:21:23.237Z,2.05
2023-05-05T22:23:50.500Z,2.30
2023-05-05T22:26:17.785Z,2.05
2023-05-05T22:28:45.050Z,2.30
2023-05-05T22:31:12.362Z,2.75
2023-05-05T22:33:39.556Z,2.50
2023-05-05T22:36:07.032Z,2.75
2023-05-05T22:38:34.260Z,2.05
2023-05-05T22:41:01.708Z,2.45
2023-05-05T22:43:29.032Z,3.35
2023-05-05T22:45:56.248Z,1.95
2023-05-05T22:48:23.559Z,1.80
2023-05-05T22:50:51.625Z,2.60
2023-05-05T22:53:18.827Z,2.13
2023-05-05T22:55:46.136Z,2.20
2023-05-05T22:58:13.388Z,2.40
2023-05-05T23:00:40.781Z,2.20
2023-05-05T23:03:08.146Z,2.33
2023-05-05T23:05:35.777Z,2.25
2023-05-05T23:08:03.502Z,2.50
2023-05-05T23:10:30.770Z,2.13
2023-05-05T23:12:58.121Z,2.05
2023-05-05T23:15:25.857Z,2.58
2023-05-05T23:17:53.082Z,2.67
2023-05-05T23:20:20.456Z,3.05
2023-05-05T23:22:47.771Z,3.80
2023-05-05T23:25:15.192Z,2.60
2023-05-05T23:27:42.476Z,3.90
2023-05-05T23:30:09.819Z,2.58
2023-05-05T23:32:37.119Z,1.98
2023-05-05T23:35:04.470Z,3.45
2023-05-05T23:37:31.697Z,2.25
2023-05-05T23:39:58.992Z,2.35
2023-05-05T23:42:26.196Z,2.22
2023-05-05T23:44:53.529Z,1.92
2023-05-05T23:47:20.819Z,2.72
2023-05-05T23:49:48.377Z,2.00
2023-05-05T23:52:15.583Z,2.13
2023-05-05T23:54:42.971Z,1.30
2023-05-05T23:57:10.667Z,1.83
2023-05-05T23:59:38.035Z,1.45
